Time;durP1;ratioP1;P1;durP2;ratioP2;P2;SDS_P1;SDS_P2;PMS_P1;PMS_P2;Temp;Humidity;BMP_temperature;BMP_pressure;BME280_temperature;BME280_humidity;BME280_pressure;Samples;Min_cycle;Max_cycle;Signal;HPM_P1;HPM_P2
2021/10/09 00:02:00;;;;;;;16.95;10.80;;;10.60;99.90;;;;;;5054185;28;20203;-71
2021/10/09 00:04:27;;;;;;;16.45;10.25;;;10.60;99.90;;;;;;5054585;28;20573;-71
2021/10/09 00:06:54;;;;;;;17.25;10.15;;;10.70;99.90;;;;;;5054729;28;20219;-72
2021/10/09 00:09:21;;;;;;;15.38;11.60;;;10.60;99.90;;;;;;5054410;28;20737;-72
2021/10/09 00:11:47;;;;;;;15.98;10.25;;;10.70;99.90;;;;;;5054629;28;20207;-71
2021/10/09 00:14:15;;;;;;;18.00;11.00;;;10.60;99.90;;;;;;5054262;28;20213;-72
2021/10/09 00:16:43;;;;;;;14.65;10.93;;;10.60;99.90;;;;;;5054049;28;20220;-71
2021/10/09 00:19:12;;;;;;;15.93;10.65;;;10.60;99.90;;;;;;5054065;28;20298;-71
2021/10/09 00:21:43;;;;;;;19.08;10.95;;;10.50;99.90;;;;;;5053640;28;20213;-71
2021/10/09 00:24:11;;;;;;;19.10;10.40;;;10.50;99.90;;;;;;5055052;28;20242;-71
2021/10/09 00:26:37;;;;;;;17.83;10.65;;;10.50;99.90;;;;;;5054056;28;20587;-72
2021/10/09 00:29:04;;;;;;;16.55;11.20;;;10.40;99.90;;;;;;5054000;28;20210;-71
2021/10/09 00:31:31;;;;;;;21.85;11.93;;;10.40;99.90;;;;;;5053731;28;20203;-70
2021/10/09 00:33:58;;;;;;;15.02;10.02;;;10.40;99.90;;;;;;5054310;28;20234;-71
2021/10/09 00:36:26;;;;;;;17.45;11.25;;;10.40;99.90;;;;;;5053835;28;20252;-71
2021/10/09 00:38:54;;;;;;;17.23;10.55;;;10.40;99.90;;;;;;5054049;28;20203;-71
2021/10/09 00:41:21;;;;;;;18.30;10.98;;;10.30;99.90;;;;;;5053517;28;20255;-71
2021/10/09 00:43:47;;;;;;;19.10;10.35;;;10.30;99.90;;;;;;5053724;28;20227;-71
2021/10/09 00:46:14;;;;;;;17.50;10.57;;;10.30;99.90;;;;;;5053588;28;20309;-71
2021/10/09 00:48:41;;;;;;;16.52;10.30;;;10.30;99.90;;;;;;5053857;28;20205;-72
2021/10/09 00:51:08;;;;;;;16.45;10.35;;;10.20;99.90;;;;;;5053887;28;20567;-70
2021/10/09 00:53:39;;;;;;;17.20;11.27;;;10.20;99.90;;;;;;5053667;28;20290;-71
2021/10/09 00:56:07;;;;;;;19.38;11.25;;;10.20;99.90;;;;;;5053443;28;20749;-71
2021/10/09 00:58:37;;;;;;;15.60;10.95;;;10.20;99.90;;;;;;5053599;28;20203;-71
2021/10/09 01:01:04;;;;;;;19.33;10.90;;;10.10;99.90;;;;;;5053716;28;20211;-71
2021/10/09 01:03:32;;;;;;;15.98;10.27;;;10.10;99.90;;;;;;5053608;28;20313;-71
2021/10/09 01:05:58;;;;;;;16.60;11.05;;;10.00;99.90;;;;;;5053641;28;20321;-71
2021/10/09 01:08:25;;;;;;;16.88;11.20;;;10.10;99.90;;;;;;5054727;28;20615;-71
2021/10/09 01:10:53;;;;;;;17.77;9.95;;;10.00;99.90;;;;;;5053655;28;20211;-71
2021/10/09 01:13:20;;;;;;;15.55;11.27;;;10.10;99.90;;;;;;5053444;28;20203;-70
2021/10/09 01:15:47;;;;;;;15.95;10.27;;;10.10;99.90;;;;;;5053843;28;20200;-71
2021/10/09 01:18:16;;;;;;;16.52;10.52;;;10.10;99.90;;;;;;5053649;28;20649;-71
2021/10/09 01:20:47;;;;;;;15.15;10.93;;;10.00;99.90;;;;;;5053891;28;20550;-71
2021/10/09 01:23:14;;;;;;;17.92;10.93;;;10.00;99.90;;;;;;5053232;28;20231;-71
2021/10/09 01:25:41;;;;;;;19.80;10.20;;;10.00;99.90;;;;;;5053016;28;20220;-71
2021/10/09 01:28:09;;;;;;;20.30;10.98;;;10.00;99.90;;;;;;5053478;28;20230;-71
2021/10/09 01:30:36;;;;;;;18.00;10.70;;;10.00;99.90;;;;;;5053459;28;20214;-71
2021/10/09 01:33:04;;;;;;;16.75;10.15;;;10.00;99.90;;;;;;5056560;28;20209;-71
2021/10/09 01:35:31;;;;;;;16.88;11.23;;;10.00;99.90;;;;;;5057646;28;20580;-71
2021/10/09 01:37:59;;;;;;;18.02;10.73;;;10.00;99.90;;;;;;5057698;28;20565;-71
2021/10/09 01:40:26;;;;;;;18.40;10.95;;;9.90;99.90;;;;;;5057357;28;20203;-71
2021/10/09 01:42:52;;;;;;;17.90;10.00;;;9.90;99.90;;;;;;5057001;28;20219;-70
2021/10/09 01:45:19;;;;;;;18.70;11.02;;;9.90;99.90;;;;;;5057470;28;20199;-71
2021/10/09 01:47:46;;;;;;;15.45;9.98;;;9.90;99.90;;;;;;5057390;28;20310;-71
2021/10/09 01:50:13;;;;;;;19.10;11.07;;;9.90;99.90;;;;;;5056918;28;20294;-71
2021/10/09 01:52:40;;;;;;;18.00;10.80;;;9.80;99.90;;;;;;5057030;28;20545;-70
2021/10/09 01:55:09;;;;;;;15.93;10.68;;;9.80;99.90;;;;;;5057145;28;20728;-71
2021/10/09 01:57:36;;;;;;;16.17;10.48;;;9.80;99.90;;;;;;5057077;28;20234;-71
2021/10/09 02:00:04;;;;;;;16.08;10.80;;;9.70;99.90;;;;;;5057065;28;20310;-71
2021/10/09 02:02:31;;;;;;;16.67;11.20;;;9.70;99.90;;;;;;5056559;28;20298;-70
2021/10/09 02:04:58;;;;;;;18.15;10.15;;;9.70;99.90;;;;;;5057352;28;20309;-71
2021/10/09 02:07:25;;;;;;;17.77;9.35;;;9.70;99.90;;;;;;5056568;28;20338;-71
2021/10/09 02:09:53;;;;;;;17.27;10.15;;;9.80;99.90;;;;;;5057027;28;20286;-71
2021/10/09 02:12:23;;;;;;;16.50;9.80;;;9.80;99.90;;;;;;5056616;28;20310;-70
2021/10/09 02:14:53;;;;;;;15.82;10.32;;;9.70;99.90;;;;;;5057034;28;20202;-71
2021/10/09 02:25:44;;;;;;;14.18;9.65;;;9.70;99.90;;;;;;5056611;28;20680;-71
2021/10/09 02:28:13;;;;;;;19.02;10.15;;;9.60;99.90;;;;;;5056526;28;20697;-71
2021/10/09 02:30:40;;;;;;;16.73;9.80;;;9.60;99.90;;;;;;5056572;28;20203;-71
2021/10/09 02:33:07;;;;;;;17.67;11.65;;;9.50;99.90;;;;;;5056706;28;20206;-70
2021/10/09 02:35:34;;;;;;;17.92;10.05;;;9.50;99.90;;;;;;5056624;28;20215;-71
2021/10/09 02:38:02;;;;;;;14.50;9.75;;;9.50;99.90;;;;;;5056721;28;20222;-71
2021/10/09 02:40:28;;;;;;;16.38;10.40;;;9.40;99.90;;;;;;5056119;28;20298;-71
2021/10/09 02:42:55;;;;;;;18.35;10.27;;;9.40;99.90;;;;;;5055179;28;20227;-71
2021/10/09 02:45:24;;;;;;;17.48;10.05;;;9.30;99.90;;;;;;5055794;28;20210;-71
2021/10/09 02:47:50;;;;;;;15.30;10.10;;;9.30;99.90;;;;;;5055835;28;20230;-71
2021/10/09 02:50:18;;;;;;;20.30;10.95;;;9.30;99.90;;;;;;5055654;28;20679;-71
2021/10/09 02:52:44;;;;;;;17.15;9.95;;;9.30;99.90;;;;;;5055571;28;20203;-70
2021/10/09 02:55:13;;;;;;;17.15;11.02;;;9.30;99.90;;;;;;5055640;28;20680;-71
2021/10/09 02:57:40;;;;;;;15.63;10.05;;;9.30;99.90;;;;;;5055616;28;20624;-71
2021/10/09 03:00:08;;;;;;;16.75;9.88;;;9.30;99.90;;;;;;5055527;28;20203;-71
2021/10/09 03:02:36;;;;;;;16.80;10.60;;;9.30;99.90;;;;;;5055262;28;20307;-70
2021/10/09 03:05:03;;;;;;;16.83;10.32;;;9.30;99.90;;;;;;5055444;28;20233;-71
2021/10/09 03:07:30;;;;;;;17.27;10.02;;;9.20;99.90;;;;;;5055313;28;20231;-70
2021/10/09 03:09:57;;;;;;;14.65;10.35;;;9.30;99.90;;;;;;5055652;28;20298;-71
2021/10/09 03:12:24;;;;;;;14.30;9.90;;;9.30;99.90;;;;;;5055522;28;20203;-70
2021/10/09 03:14:50;;;;;;;17.98;10.85;;;9.40;99.90;;;;;;5056562;28;20203;-71
2021/10/09 03:17:17;;;;;;;16.17;9.00;;;9.40;99.90;;;;;;5055858;28;20694;-70
2021/10/09 03:19:45;;;;;;;17.05;10.35;;;9.40;99.90;;;;;;5055684;28;20203;-71
2021/10/09 03:22:13;;;;;;;17.05;10.45;;;9.30;99.90;;;;;;5055597;28;20207;-70
2021/10/09 03:24:40;;;;;;;16.67;10.13;;;9.30;99.90;;;;;;5056033;28;20227;-71
2021/10/09 03:27:06;;;;;;;14.68;9.40;;;9.30;99.90;;;;;;5056173;28;20284;-71
2021/10/09 03:29:33;;;;;;;16.20;10.98;;;9.20;99.90;;;;;;5056128;28;20203;-71
2021/10/09 03:32:00;;;;;;;16.67;9.60;;;9.20;99.90;;;;;;5055343;28;20661;-70
2021/10/09 03:34:32;;;;;;;14.25;9.52;;;9.20;99.90;;;;;;5055854;28;20295;-71
2021/10/09 03:37:00;;;;;;;16.77;10.15;;;9.20;99.90;;;;;;5055925;28;20219;-71
2021/10/09 03:39:27;;;;;;;13.13;9.90;;;9.10;99.90;;;;;;5055323;28;20302;-71
2021/10/09 03:41:59;;;;;;;15.73;10.40;;;9.10;99.90;;;;;;5055330;28;20199;-71
2021/10/09 03:44:28;;;;;;;14.60;10.38;;;9.10;99.90;;;;;;5055325;28;20281;-71
2021/10/09 03:47:00;;;;;;;16.00;9.27;;;9.00;99.90;;;;;;5055483;28;20234;-71
2021/10/09 03:49:38;;;;;;;14.70;9.32;;;9.00;99.90;;;;;;5055097;28;20303;-71
2021/10/09 03:54:50;;;;;;;12.82;8.50;;;9.00;99.90;;;;;;5054510;28;20202;-71
2021/10/09 03:57:17;;;;;;;14.95;8.85;;;9.00;99.90;;;;;;5055464;28;20225;-71
2021/10/09 03:59:44;;;;;;;15.90;9.90;;;9.00;99.90;;;;;;5055453;28;20204;-71
2021/10/09 04:02:11;;;;;;;16.90;10.57;;;9.00;99.90;;;;;;5055322;28;20294;-70
2021/10/09 04:04:38;;;;;;;14.80;8.80;;;9.10;99.90;;;;;;5056649;28;20249;-71
2021/10/09 04:07:06;;;;;;;13.95;9.75;;;9.10;99.90;;;;;;5056553;28;20262;-71
2021/10/09 04:09:32;;;;;;;16.13;9.25;;;9.10;99.90;;;;;;5055807;28;20291;-71
2021/10/09 04:11:59;;;;;;;13.23;8.93;;;9.10;99.90;;;;;;5055652;28;20200;-70
2021/10/09 04:14:26;;;;;;;14.75;9.00;;;9.10;99.90;;;;;;5055232;28;20206;-71
2021/10/09 04:16:53;;;;;;;14.88;9.10;;;9.00;99.90;;;;;;5054022;28;20651;-71
2021/10/09 04:19:20;;;;;;;14.45;9.13;;;9.00;99.90;;;;;;5055036;28;20210;-71
2021/10/09 04:21:46;;;;;;;17.52;9.05;;;9.00;99.90;;;;;;5055215;28;20294;-71
2021/10/09 04:24:18;;;;;;;14.82;9.55;;;9.00;99.90;;;;;;5054655;28;20223;-71
2021/10/09 04:26:45;;;;;;;14.52;9.45;;;9.00;99.90;;;;;;5055191;28;20223;-71
2021/10/09 04:29:11;;;;;;;12.80;8.98;;;9.00;99.90;;;;;;5055722;28;20203;-71
2021/10/09 04:31:38;;;;;;;18.67;9.65;;;9.00;99.90;;;;;;5055564;28;20298;-70
2021/10/09 04:34:05;;;;;;;15.18;8.75;;;9.00;99.90;;;;;;5055156;28;20195;-71
2021/10/09 04:36:32;;;;;;;17.38;10.20;;;9.00;99.90;;;;;;5054625;28;20660;-71
2021/10/09 04:38:59;;;;;;;16.27;10.07;;;9.00;99.90;;;;;;5053977;28;20221;-71
2021/10/09 04:41:27;;;;;;;14.77;9.00;;;9.00;99.90;;;;;;5053723;28;20207;-71
2021/10/09 04:43:54;;;;;;;15.50;9.20;;;8.90;99.90;;;;;;5053660;28;20555;-71
2021/10/09 04:46:21;;;;;;;16.45;9.55;;;8.90;99.90;;;;;;5053351;28;20227;-71
2021/10/09 04:48:48;;;;;;;18.80;10.15;;;8.80;99.90;;;;;;5053393;28;20207;-71
2021/10/09 04:51:15;;;;;;;14.13;8.95;;;8.90;99.90;;;;;;5053576;28;20206;-70
2021/10/09 04:53:41;;;;;;;14.63;9.30;;;8.90;99.90;;;;;;5053891;28;20199;-71
2021/10/09 04:56:08;;;;;;;15.68;9.48;;;9.00;99.90;;;;;;5055146;28;20207;-71
2021/10/09 04:58:36;;;;;;;13.18;8.95;;;9.00;99.90;;;;;;5053800;28;20294;-71
2021/10/09 05:01:03;;;;;;;15.65;9.70;;;9.10;99.90;;;;;;5053860;28;20200;-71
2021/10/09 05:03:30;;;;;;;13.38;9.10;;;9.10;99.90;;;;;;5053740;28;20306;-71
2021/10/09 05:05:57;;;;;;;15.65;9.57;;;9.10;99.90;;;;;;5054048;28;20199;-71
2021/10/09 05:08:24;;;;;;;13.05;9.10;;;9.20;99.90;;;;;;5057636;28;20657;-71
2021/10/09 05:10:51;;;;;;;16.33;9.50;;;9.10;99.90;;;;;;5057716;28;20294;-71
2021/10/09 05:13:18;;;;;;;14.50;9.57;;;9.10;99.90;;;;;;5057434;28;20293;-70
2021/10/09 05:15:46;;;;;;;16.50;10.05;;;9.10;99.90;;;;;;5057316;28;20207;-71
2021/10/09 05:18:13;;;;;;;15.95;10.18;;;9.10;99.90;;;;;;5057411;28;20230;-71
2021/10/09 05:20:40;;;;;;;13.00;8.85;;;9.00;99.90;;;;;;5057411;28;20569;-71
2021/10/09 05:23:07;;;;;;;14.38;10.25;;;9.00;99.90;;;;;;5057141;28;20576;-70
2021/10/09 05:25:36;;;;;;;18.58;9.40;;;9.00;99.90;;;;;;5056945;28;20239;-71
2021/10/09 05:28:05;;;;;;;16.77;9.75;;;9.00;99.90;;;;;;5057249;28;20338;-71
2021/10/09 05:30:33;;;;;;;15.32;9.57;;;9.00;99.90;;;;;;5057046;28;20219;-71
2021/10/09 05:33:14;;;;;;;14.32;8.40;;;9.00;99.90;;;;;;5057080;28;20654;-71
2021/10/09 05:35:41;;;;;;;14.05;9.20;;;8.90;99.90;;;;;;5058558;28;20693;-71
2021/10/09 05:38:09;;;;;;;18.30;9.45;;;8.80;99.90;;;;;;5058939;28;20310;-71
2021/10/09 05:40:35;;;;;;;16.58;10.32;;;8.80;99.90;;;;;;5058797;28;20568;-71
2021/10/09 05:43:03;;;;;;;14.88;9.50;;;8.70;99.90;;;;;;5058409;28;20235;-71
2021/10/09 05:45:30;;;;;;;15.70;9.77;;;8.80;99.90;;;;;;5058784;28;20731;-71
2021/10/09 05:47:57;;;;;;;12.40;8.65;;;8.70;99.90;;;;;;5058803;28;20230;-71
2021/10/09 05:50:28;;;;;;;15.10;9.88;;;8.80;99.90;;;;;;5058416;28;20676;-71
2021/10/09 05:53:00;;;;;;;14.52;9.25;;;8.70;99.90;;;;;;5058203;28;20207;-71
2021/10/09 05:55:30;;;;;;;14.60;9.50;;;8.80;99.90;;;;;;5058769;28;20216;-71
2021/10/09 05:58:05;;;;;;;15.80;9.68;;;8.80;99.90;;;;;;5059181;28;20227;-72
2021/10/09 06:00:56;;;;;;;13.68;9.10;;;8.80;99.90;;;;;;5057550;28;20198;-71
2021/10/09 06:26:14;;;;;;;20.10;10.65;;;9.00;99.90;;;;;;5057153;28;20230;-71
2021/10/09 06:43:11;;;;;;;15.48;11.10;;;9.10;99.90;;;;;;5014856;28;20204;-71
2021/10/09 06:46:02;;;;;;;20.38;10.63;;;9.10;99.90;;;;;;5045673;28;20227;-71
2021/10/09 06:48:45;;;;;;;15.23;10.60;;;9.10;99.90;;;;;;5056713;28;20203;-71
2021/10/09 06:59:32;;;;;;;16.52;9.65;;;9.20;99.90;;;;;;5055499;28;20226;-71
2021/10/09 07:02:00;;;;;;;17.67;10.05;;;9.10;99.90;;;;;;5055382;28;20615;-71
2021/10/09 07:04:26;;;;;;;18.17;10.80;;;9.20;99.90;;;;;;5055392;28;20230;-71
2021/10/09 07:06:55;;;;;;;17.08;10.20;;;9.20;99.90;;;;;;5055438;28;20233;-71
2021/10/09 07:09:22;;;;;;;16.58;10.70;;;9.20;99.90;;;;;;5055628;28;20203;-71
2021/10/09 07:11:50;;;;;;;21.27;12.27;;;9.20;99.90;;;;;;5055510;28;20350;-71
2021/10/09 07:14:17;;;;;;;17.40;10.65;;;9.30;99.90;;;;;;5055741;28;20290;-71
2021/10/09 07:16:44;;;;;;;16.17;10.70;;;9.40;99.90;;;;;;5055674;28;20223;-71
2021/10/09 07:19:10;;;;;;;20.50;11.93;;;9.50;99.90;;;;;;5055700;28;20299;-71
2021/10/09 07:21:37;;;;;;;18.52;11.32;;;9.50;99.90;;;;;;5055042;28;20210;-71
2021/10/09 07:24:04;;;;;;;18.05;11.98;;;9.60;99.90;;;;;;5054806;28;20210;-72
2021/10/09 07:26:31;;;;;;;17.55;10.80;;;9.50;99.90;;;;;;5055740;28;20220;-71
2021/10/09 07:28:59;;;;;;;17.88;11.15;;;9.60;99.90;;;;;;5054649;28;20758;-71
2021/10/09 07:31:26;;;;;;;18.38;11.02;;;9.70;99.90;;;;;;5054920;28;20210;-71
2021/10/09 07:33:53;;;;;;;17.98;11.05;;;9.70;99.90;;;;;;5055138;28;20569;-71
2021/10/09 07:36:21;;;;;;;23.35;12.65;;;9.80;99.90;;;;;;5054975;28;20269;-71
2021/10/09 07:38:48;;;;;;;14.85;10.40;;;9.80;99.90;;;;;;5055176;28;20286;-71
2021/10/09 07:41:15;;;;;;;17.55;11.65;;;9.90;99.90;;;;;;5054651;28;20203;-70
2021/10/09 07:43:42;;;;;;;23.58;12.05;;;9.80;99.90;;;;;;5054924;28;20199;-71
2021/10/09 07:46:11;;;;;;;17.33;12.02;;;9.80;99.90;;;;;;5054384;28;20703;-71
2021/10/09 07:48:38;;;;;;;18.77;11.60;;;9.80;99.90;;;;;;5054824;28;20200;-71
2021/10/09 07:51:06;;;;;;;17.52;11.55;;;9.80;99.90;;;;;;5055364;28;20226;-70
2021/10/09 07:53:32;;;;;;;18.85;11.60;;;9.80;99.90;;;;;;5055489;28;20214;-71
2021/10/09 07:55:59;;;;;;;18.20;12.48;;;9.90;99.90;;;;;;5055744;28;20598;-71
2021/10/09 07:58:26;;;;;;;16.50;10.63;;;10.00;99.90;;;;;;5056030;28;20295;-71
2021/10/09 08:00:53;;;;;;;20.35;12.40;;;10.10;99.90;;;;;;5055446;28;20299;-72
2021/10/09 08:03:24;;;;;;;20.55;12.18;;;10.10;99.90;;;;;;5055509;28;20741;-70
2021/10/09 08:05:52;;;;;;;20.88;12.27;;;10.20;99.90;;;;;;5054944;28;20257;-71
2021/10/09 08:08:19;;;;;;;21.23;12.55;;;10.20;99.90;;;;;;5054106;28;20219;-71
2021/10/09 08:10:47;;;;;;;18.90;11.93;;;10.20;99.90;;;;;;5054097;28;20213;-71
2021/10/09 08:13:14;;;;;;;23.27;13.52;;;10.20;99.90;;;;;;5054145;28;20208;-71
2021/10/09 08:15:41;;;;;;;18.75;11.48;;;10.20;99.90;;;;;;5054453;28;20196;-71
2021/10/09 08:18:08;;;;;;;15.63;10.77;;;10.20;99.90;;;;;;5054849;28;20231;-71
2021/10/09 08:20:37;;;;;;;16.83;11.35;;;10.30;99.90;;;;;;5055010;28;20213;-71
2021/10/09 08:23:06;;;;;;;18.13;12.02;;;10.20;99.90;;;;;;5054667;28;20239;-71
2021/10/09 08:25:58;;;;;;;18.25;11.05;;;10.30;99.90;;;;;;5054787;28;20223;-71
2021/10/09 08:36:49;;;;;;;19.88;11.60;;;10.40;99.90;;;;;;5053739;28;20280;-71
2021/10/09 08:39:17;;;;;;;18.35;11.50;;;10.40;99.90;;;;;;5053821;28;20188;-71
2021/10/09 08:41:44;;;;;;;23.05;11.63;;;10.40;99.90;;;;;;5052913;28;20203;-71
2021/10/09 08:44:10;;;;;;;21.17;12.90;;;10.50;99.90;;;;;;5053690;28;20208;-71
2021/10/09 08:46:37;;;;;;;18.17;12.88;;;10.50;99.90;;;;;;5053645;28;20229;-71
2021/10/09 08:49:06;;;;;;;18.65;11.48;;;10.60;99.90;;;;;;5053738;28;20299;-71
2021/10/09 08:51:32;;;;;;;22.35;12.85;;;10.70;99.90;;;;;;5053559;28;20274;-71
2021/10/09 08:54:07;;;;;;;18.90;12.85;;;10.80;99.90;;;;;;5053629;28;20289;-71
2021/10/09 08:56:35;;;;;;;18.10;11.63;;;10.90;99.90;;;;;;5053565;28;20222;-71
2021/10/09 08:59:17;;;;;;;18.60;12.60;;;10.90;99.90;;;;;;5044950;28;20295;-72
2021/10/09 09:01:59;;;;;;;20.08;12.55;;;11.00;99.90;;;;;;5059052;28;20293;-73
2021/10/09 09:04:45;;;;;;;20.52;11.68;;;11.10;99.90;;;;;;5052424;28;20573;-74
2021/10/09 09:32:37;;;;;;;19.50;11.40;;;11.80;99.90;;;;;;5051415;28;20305;-72
2021/10/09 09:35:26;;;;;;;19.30;11.88;;;11.90;99.90;;;;;;5051691;28;20620;-70
2021/10/09 09:40:41;;;;;;;18.23;12.40;;;12.00;99.90;;;;;;5030678;28;20658;-71
2021/10/09 09:43:10;;;;;;;18.58;11.43;;;12.10;99.90;;;;;;5051356;28;20208;-71
2021/10/09 09:45:38;;;;;;;16.88;11.73;;;12.10;99.90;;;;;;5051477;28;20321;-71
2021/10/09 09:48:07;;;;;;;16.38;12.00;;;12.20;99.90;;;;;;5051704;28;20223;-71
2021/10/09 09:50:35;;;;;;;16.92;12.38;;;12.30;99.90;;;;;;5051549;28;20203;-70
2021/10/09 09:53:03;;;;;;;18.05;11.55;;;12.40;99.90;;;;;;5052872;28;20208;-70
2021/10/09 09:55:31;;;;;;;15.65;12.40;;;12.50;99.90;;;;;;5055283;28;20208;-71
2021/10/09 09:58:00;;;;;;;20.73;12.25;;;12.50;99.90;;;;;;5055407;28;20220;-71
2021/10/09 10:00:33;;;;;;;18.20;11.65;;;12.60;99.90;;;;;;5055365;28;20669;-71
2021/10/09 10:03:02;;;;;;;21.23;12.18;;;12.70;99.90;;;;;;5054485;28;20200;-71
2021/10/09 10:05:29;;;;;;;17.10;11.20;;;12.70;99.90;;;;;;5054732;28;20219;-71
2021/10/09 10:07:56;;;;;;;18.02;13.10;;;12.80;99.90;;;;;;5054997;28;20720;-70
2021/10/09 10:10:23;;;;;;;15.23;10.73;;;12.80;99.90;;;;;;5055295;28;20210;-71
2021/10/09 10:12:55;;;;;;;19.00;11.40;;;12.90;99.90;;;;;;5054785;28;20211;-71
2021/10/09 10:15:28;;;;;;;15.50;10.57;;;13.00;99.90;;;;;;5055027;28;20286;-71
2021/10/09 10:17:55;;;;;;;14.48;9.80;;;13.10;99.90;;;;;;5055046;28;20228;-74
2021/10/09 10:20:23;;;;;;;15.60;9.63;;;13.30;99.90;;;;;;5056089;28;20210;-70
2021/10/09 10:23:04;;;;;;;15.82;10.70;;;13.50;99.90;;;;;;5055904;28;20206;-70
2021/10/09 10:25:36;;;;;;;14.32;10.68;;;13.60;99.90;;;;;;5055877;28;20223;-70
2021/10/09 10:28:05;;;;;;;14.55;10.32;;;13.70;99.90;;;;;;5055651;28;20225;-70
2021/10/09 10:30:35;;;;;;;15.40;10.52;;;13.70;99.90;;;;;;5055843;28;20295;-70
2021/10/09 10:33:42;;;;;;;13.70;9.35;;;13.80;99.90;;;;;;5055501;28;20689;-70
2021/10/09 10:36:33;;;;;;;11.90;8.70;;;13.90;99.90;;;;;;5055663;28;20240;-70
2021/10/09 10:39:00;;;;;;;14.85;10.00;;;13.90;99.90;;;;;;5055464;28;20686;-70
2021/10/09 10:41:48;;;;;;;17.30;9.80;;;14.00;99.90;;;;;;5055541;28;20231;-71
2021/10/09 10:44:45;;;;;;;11.95;8.45;;;14.10;99.90;;;;;;5055702;28;20204;-70
2021/10/09 10:47:47;;;;;;;13.00;8.80;;;14.10;99.90;;;;;;5055382;28;20223;-71
2021/10/09 10:51:14;;;;;;;13.77;9.60;;;14.20;99.90;;;;;;5055517;28;20555;-70
2021/10/09 10:57:18;;;;;;;9.93;7.72;;;14.30;99.90;;;;;;5049867;28;20205;-70
2021/10/09 10:59:49;;;;;;;12.40;9.25;;;14.50;99.90;;;;;;5055100;28;20208;-70
2021/10/09 11:02:17;;;;;;;12.00;8.05;;;14.70;99.90;;;;;;5055000;28;20211;-70
2021/10/09 11:04:48;;;;;;;10.15;8.25;;;15.10;99.90;;;;;;5054794;28;20202;-70
2021/10/09 11:07:15;;;;;;;13.35;8.77;;;15.40;99.90;;;;;;5055525;28;20249;-70
2021/10/09 11:09:43;;;;;;;12.43;7.70;;;15.60;99.90;;;;;;5055247;28;20205;-70
2021/10/09 11:12:22;;;;;;;10.35;7.75;;;15.80;99.90;;;;;;5054777;28;20669;-70
2021/10/09 11:14:49;;;;;;;12.60;7.70;;;16.00;99.90;;;;;;5054872;28;20293;-70
2021/10/09 11:17:16;;;;;;;9.23;7.90;;;16.10;99.90;;;;;;5054982;28;20226;-70
2021/10/09 11:19:46;;;;;;;11.43;8.05;;;16.30;99.90;;;;;;5054972;28;20211;-70
2021/10/09 11:22:14;;;;;;;11.93;8.13;;;16.30;99.70;;;;;;5054569;28;20210;-70
2021/10/09 11:24:46;;;;;;;13.20;8.25;;;16.30;99.90;;;;;;5054683;28;20588;-70
2021/10/09 11:27:15;;;;;;;11.02;8.00;;;16.20;99.40;;;;;;5054750;28;20234;-71
2021/10/09 11:29:43;;;;;;;9.23;7.68;;;16.20;98.90;;;;;;5054504;28;20704;-70
2021/10/09 11:32:11;;;;;;;11.82;7.95;;;16.20;99.60;;;;;;5054464;28;20233;-70
2021/10/09 11:34:53;;;;;;;10.60;8.38;;;16.20;98.90;;;;;;5054591;28;20206;-70
2021/10/09 11:37:20;;;;;;;11.55;8.57;;;16.10;99.00;;;;;;5054402;28;20226;-70
2021/10/09 11:39:50;;;;;;;11.00;7.25;;;16.10;98.80;;;;;;5054571;28;20206;-70
2021/10/09 11:42:19;;;;;;;13.00;8.05;;;16.10;99.50;;;;;;5054212;28;20243;-70
2021/10/09 11:45:02;;;;;;;10.38;7.65;;;16.10;99.10;;;;;;5054463;28;20551;-70
2021/10/09 11:53:28;;;;;;;11.15;7.85;;;16.50;99.90;;;;;;5054398;28;20281;-71
2021/10/09 11:55:50;;;;;;;10.60;8.18;;;18.20;96.40;;;;;;5054308;28;20217;-68
2021/10/09 11:58:17;;;;;;;12.23;7.95;;;18.30;95.90;;;;;;5054233;28;20224;-67
2021/10/09 12:00:44;;;;;;;10.43;7.50;;;18.20;95.00;;;;;;5054191;28;20206;-68
2021/10/09 12:03:31;;;;;;;9.02;7.90;;;18.10;95.10;;;;;;5053991;28;20605;-67
2021/10/09 12:06:01;;;;;;;10.30;7.55;;;18.20;94.60;;;;;;5053884;28;20233;-67
2021/10/09 12:08:29;;;;;;;9.20;7.40;;;18.60;94.00;;;;;;5054118;28;20271;-67
2021/10/09 12:11:10;;;;;;;10.60;7.77;;;19.20;93.20;;;;;;5053763;28;20503;-68
2021/10/09 12:13:48;;;;;;;9.30;7.83;;;20.10;91.40;;;;;;5053965;28;20444;-68
2021/10/09 12:16:16;;;;;;;10.97;8.47;;;20.30;89.80;;;;;;5053107;28;20437;-68
2021/10/09 12:18:52;;;;;;;10.30;7.60;;;20.60;89.10;;;;;;5053871;28;20452;-68
2021/10/09 12:21:21;;;;;;;10.03;8.10;;;20.70;87.40;;;;;;5053665;28;20467;-68
2021/10/09 12:23:48;;;;;;;7.80;6.90;;;20.50;86.00;;;;;;5053635;28;20812;-68
2021/10/09 12:26:16;;;;;;;11.70;7.20;;;20.20;88.50;;;;;;5053463;28;20492;-68
2021/10/09 12:29:12;;;;;;;11.40;7.97;;;19.90;90.10;;;;;;5053784;28;20464;-68
2021/10/09 12:31:43;;;;;;;8.10;6.77;;;19.60;89.70;;;;;;5053531;28;20611;-68
2021/10/09 12:34:33;;;;;;;9.37;7.30;;;19.20;89.80;;;;;;5053543;28;20438;-67
2021/10/09 12:37:16;;;;;;;9.90;7.65;;;18.90;90.30;;;;;;5053595;28;20857;-68
2021/10/09 12:39:44;;;;;;;9.75;7.05;;;18.60;90.20;;;;;;5053401;28;20706;-67
2021/10/09 12:42:13;;;;;;;11.73;8.32;;;18.50;90.90;;;;;;5053189;28;20204;-68
2021/10/09 12:44:40;;;;;;;8.35;6.63;;;18.30;90.60;;;;;;5053543;28;20239;-67
2021/10/09 12:47:07;;;;;;;9.45;6.80;;;18.20;90.80;;;;;;5053271;28;20253;-70
2021/10/09 12:49:34;;;;;;;8.98;7.00;;;18.10;91.10;;;;;;5053574;28;20203;-70
2021/10/09 12:52:00;;;;;;;8.85;6.55;;;18.00;91.50;;;;;;5053189;28;20199;-71
2021/10/09 12:54:31;;;;;;;10.48;7.55;;;18.00;91.60;;;;;;5054082;28;20309;-70
2021/10/09 12:56:58;;;;;;;8.80;7.45;;;17.90;92.00;;;;;;5053189;28;20215;-70
2021/10/09 12:59:25;;;;;;;10.27;7.70;;;17.80;92.10;;;;;;5053686;28;20290;-70
2021/10/09 13:01:51;;;;;;;10.48;7.32;;;17.80;91.70;;;;;;5053132;28;20200;-71
2021/10/09 13:04:18;;;;;;;8.95;6.80;;;17.50;91.60;;;;;;5053395;28;20235;-70
2021/10/09 13:06:45;;;;;;;12.95;8.70;;;17.40;92.60;;;;;;5053171;28;20314;-71
2021/10/09 13:09:14;;;;;;;9.65;8.05;;;17.50;92.90;;;;;;5053087;28;20753;-70
2021/10/09 13:11:47;;;;;;;10.25;7.18;;;17.60;92.80;;;;;;5053075;28;20232;-70
2021/10/09 13:14:14;;;;;;;9.75;7.80;;;17.70;93.40;;;;;;5053552;28;20203;-70
2021/10/09 13:16:41;;;;;;;9.05;6.90;;;17.70;92.80;;;;;;5053210;28;20245;-70
2021/10/09 13:19:08;;;;;;;10.48;7.35;;;17.70;92.80;;;;;;5052987;28;20697;-70
2021/10/09 13:21:35;;;;;;;10.77;7.38;;;17.80;92.80;;;;;;5052826;28;20209;-70
2021/10/09 13:24:02;;;;;;;8.68;7.03;;;17.70;92.10;;;;;;5053118;28;20294;-71
2021/10/09 13:26:31;;;;;;;8.07;6.63;;;17.70;92.00;;;;;;5053026;28;20320;-70
2021/10/09 13:29:00;;;;;;;10.82;7.50;;;17.70;92.80;;;;;;5056749;28;20199;-71
2021/10/09 13:31:27;;;;;;;9.43;7.28;;;17.70;92.60;;;;;;5056825;28;20213;-69
2021/10/09 13:33:54;;;;;;;10.43;6.90;;;17.70;92.20;;;;;;5056910;28;20210;-70
2021/10/09 13:36:21;;;;;;;9.32;7.15;;;17.70;92.20;;;;;;5056674;28;20705;-71
2021/10/09 13:38:48;;;;;;;11.32;7.65;;;17.70;91.90;;;;;;5056952;28;20212;-70
2021/10/09 13:41:15;;;;;;;8.68;6.47;;;17.70;92.10;;;;;;5056643;28;20294;-71
2021/10/09 13:43:42;;;;;;;11.52;8.00;;;17.60;91.90;;;;;;5056809;28;20205;-71
2021/10/09 13:46:13;;;;;;;11.70;7.20;;;17.60;92.20;;;;;;5056619;28;20227;-71
2021/10/09 13:48:40;;;;;;;12.80;7.32;;;17.60;91.90;;;;;;5056726;28;20214;-70
2021/10/09 13:51:12;;;;;;;8.60;6.70;;;17.60;91.80;;;;;;5056493;28;20213;-71
2021/10/09 13:53:39;;;;;;;10.07;7.78;;;17.60;91.60;;;;;;5056646;28;20208;-71
2021/10/09 13:56:05;;;;;;;9.52;7.53;;;17.50;91.70;;;;;;5056450;28;20661;-71
2021/10/09 13:58:32;;;;;;;13.05;7.78;;;17.50;93.00;;;;;;5056591;28;20564;-70
2021/10/09 14:00:59;;;;;;;9.50;7.32;;;17.50;93.30;;;;;;5056422;28;20209;-74
2021/10/09 14:03:30;;;;;;;9.10;7.72;;;17.60;92.40;;;;;;5056439;28;20294;-70
2021/10/09 14:05:57;;;;;;;9.25;7.07;;;17.60;91.70;;;;;;5056372;28;20608;-70
2021/10/09 14:08:24;;;;;;;11.05;8.13;;;17.70;91.70;;;;;;5056428;28;20204;-70
2021/10/09 14:10:51;;;;;;;9.82;7.78;;;17.50;91.40;;;;;;5056190;28;20734;-70
2021/10/09 14:13:18;;;;;;;9.77;6.75;;;17.60;91.80;;;;;;5056017;28;20298;-70
2021/10/09 14:15:45;;;;;;;8.95;6.90;;;17.60;92.40;;;;;;5056000;28;20261;-70
2021/10/09 14:18:16;;;;;;;10.45;6.88;;;17.60;92.30;;;;;;5056150;28;20222;-70
2021/10/09 14:20:46;;;;;;;9.95;7.10;;;17.60;92.10;;;;;;5056156;28;20211;-70
2021/10/09 14:23:13;;;;;;;8.85;6.43;;;17.60;92.10;;;;;;5055747;28;20221;-70
2021/10/09 14:25:40;;;;;;;10.25;7.20;;;17.60;92.70;;;;;;5055649;28;20677;-70
2021/10/09 14:28:09;;;;;;;13.05;7.47;;;17.60;92.10;;;;;;5055613;28;20237;-71
2021/10/09 14:30:36;;;;;;;9.07;6.80;;;17.60;91.90;;;;;;5055952;28;20207;-70
2021/10/09 14:33:03;;;;;;;10.45;6.97;;;17.50;92.00;;;;;;5055578;28;20302;-71